Sant Julià de Vilatorta





Hora UTC 21:05
Temperatura 3.6 ºC
Humitat 83.8 %
Pressió 1002.3 hPa
Pluja 0.1 mm
Velocitat vent 1.4 km/h
Direcció vent ENE
Radiació solar 0.0 W/m²

Dades diàries 2019-11-15



Hora UTC (hivern +1h; estiu +2h)
Temperatura (ºC) Humitat (%) Pressió (hPa) Velocitat vent (km/h) Precipitació (mm) Radiació solar (W/m²)
Hora UTC Aire Humitat Pressió Vel. Dir. Vel. Max Dir. Intent. màx 5 min. Rad. Sol.
00:05 0.2 97.5 998.1 3.3 NNE 3.3 SE 0.0 0.0
00:10 0.1 97.6 998.1 2.9 NNE 6.0 ESE 0.0 0.0
00:15 0.1 97.6 998.1 2.9 NNE 6.0 ESE 0.0 0.0
00:20 0.0 97.8 998.2 2.8 NNE 5.5 SE 0.0 0.0
00:25 0.0 97.8 998.2 2.8 NNE 5.5 SE 0.0 0.0
00:30 0.0 97.9 998.2 3.6 NNE 7.3 ENE 0.0 0.0
00:35 0.0 97.9 998.2 3.6 NNE 7.3 ENE 0.0 0.0
00:40 -0.2 97.9 998.2 2.9 NNE 5.9 E 0.0 0.0
00:45 -0.2 97.9 998.2 2.9 NNE 5.9 E 0.0 0.0
00:50 -0.1 98.2 998.2 3.5 NNE 5.5 SSE 0.0 0.0
00:55 -0.1 98.2 998.2 3.5 NNE 5.5 SSE 0.0 0.0
01:00 -0.3 98.2 998.2 4.0 N 7.2 ENE 0.0 0.0
01:05 -0.3 98.2 998.2 4.0 N 7.2 ENE 0.0 0.0
01:10 -0.4 98.3 998.2 2.4 NE 5.2 ESE 0.0 0.0
01:15 -0.4 98.3 998.2 2.4 NE 5.2 ESE 0.0 0.0
01:20 -0.5 98.4 998.3 2.2 NNE 4.1 E 0.0 0.0
01:25 -0.5 98.4 998.3 2.2 NNE 4.1 E 0.0 0.0
01:30 -0.5 98.5 998.4 2.3 NNE 3.9 E 0.0 0.0
01:35 -0.5 98.5 998.4 2.3 NNE 3.9 E 0.0 0.0
01:40 -0.6 98.6 998.5 2.3 N 3.7 SE 0.0 0.0
01:45 -0.6 98.6 998.5 2.3 N 3.7 SE 0.0 0.0
01:50 -0.5 98.8 998.6 2.7 NNE 5.4 SSE 0.0 0.0
01:55 -0.5 98.8 998.6 2.7 NNE 5.4 SSE 0.0 0.0
02:00 -0.3 98.9 998.6 2.5 NNE 6.6 SSE 0.0 0.0
02:05 -0.3 98.9 998.6 2.5 NNE 6.6 SSE 0.0 0.0
02:10 -0.5 98.9 998.6 2.4 NNE 6.3 E 0.0 0.0
02:15 -0.5 98.9 998.6 2.4 NNE 6.3 E 0.0 0.0
02:20 -0.6 98.9 998.5 2.0 NNE 5.7 E 0.0 0.0
02:25 -0.6 98.9 998.5 2.0 NNE 5.7 E 0.0 0.0
02:30 -0.6 99.0 998.5 3.2 NNE 5.4 ESE 0.0 0.0
02:35 -0.6 99.0 998.5 3.2 NNE 5.4 ESE 0.0 0.0
02:40 -0.8 99.0 998.5 3.5 NE 6.6 ENE 0.0 0.3
02:45 -0.8 99.0 998.5 3.5 NE 6.6 ENE 0.0 0.3
02:50 -0.6 99.2 998.6 2.6 N 3.7 SSE 0.0 0.0
02:55 -0.6 99.2 998.6 2.6 N 3.7 SSE 0.0 0.0
03:00 -0.7 99.2 998.6 2.1 NNE 3.6 E 0.0 0.0
03:05 -0.7 99.2 998.6 2.1 NNE 3.6 E 0.0 0.0
03:10 -0.8 99.3 998.6 3.4 NNE 5.5 SSE 0.0 0.0
03:15 -0.8 99.3 998.6 3.4 NNE 5.5 SSE 0.0 0.0
03:20 -0.7 99.4 998.6 2.8 NNE 4.4 SE 0.0 0.0
03:25 -0.7 99.4 998.6 2.8 NNE 4.4 SE 0.0 0.0
03:30 -0.8 99.4 998.6 2.7 NNE 6.3 SSE 0.0 0.0
03:35 -0.8 99.4 998.6 2.7 NNE 6.3 SSE 0.0 0.0
03:40 -0.8 99.4 998.5 1.5 NNE 2.8 SSE 0.0 0.0
03:45 -0.8 99.4 998.5 1.5 NNE 2.8 SSE 0.0 0.0
03:50 -0.9 99.4 998.5 1.9 NE 3.7 SE 0.0 0.0
03:55 -0.9 99.4 998.5 1.9 NE 3.7 SE 0.0 0.0
04:00 -0.8 99.6 998.6 2.8 NNE 4.4 SSE 0.0 0.0
04:05 -0.8 99.6 998.6 2.8 NNE 4.4 SSE 0.0 0.0
04:10 -0.9 99.6 998.6 1.9 NNE 3.1 ESE 0.0 0.0
04:15 -0.9 99.6 998.6 1.9 NNE 3.1 ESE 0.0 0.0
04:20 -0.8 99.6 998.7 2.8 NNE 5.0 E 0.0 0.0
04:25 -0.8 99.6 998.7 2.8 NNE 5.0 E 0.0 0.0
04:30 -0.8 99.6 998.7 2.7 NNE 5.0 ESE 0.0 0.0
04:35 -0.8 99.6 998.7 2.7 NNE 5.0 ESE 0.0 0.0
04:40 -0.9 99.7 998.6 3.1 NNE 5.7 E 0.0 0.0
04:45 -0.9 99.7 998.6 3.1 NNE 5.7 E 0.0 0.0
04:50 -0.9 99.7 998.6 2.4 NE 4.5 E 0.0 0.0
04:55 -0.9 99.7 998.6 2.4 NE 4.5 E 0.0 0.0
05:00 -1.0 99.7 998.6 2.1 NE 3.3 E 0.0 0.0
05:05 -1.0 99.7 998.6 2.1 NE 3.3 E 0.0 0.0
05:10 -1.2 99.7 998.6 1.5 NNE 3.4 NNE 0.0 0.0
05:15 -1.2 99.7 998.6 1.5 NNE 3.4 NNE 0.0 0.0
05:20 -1.2 99.8 998.7 1.3 NE 3.2 NNE 0.0 0.2
05:25 -1.2 99.8 998.7 1.3 NE 3.2 NNE 0.0 0.2
05:30 -1.1 99.8 998.8 0.6 ENE 1.7 ENE 0.0 0.3
05:35 -1.1 99.8 998.8 0.6 ENE 1.7 ENE 0.0 0.3
05:40 -0.8 99.9 998.8 1.4 NE 2.8 SE 0.0 0.3
05:45 -0.8 99.9 998.8 1.4 NE 2.8 SE 0.0 0.3
05:50 -0.7 99.9 998.9 1.2 NE 2.4 ENE 0.0 0.3
05:55 -0.7 99.9 998.9 1.2 NE 2.4 ENE 0.0 0.3
06:00 -0.5 99.9 998.8 1.3 NE 3.6 NNE 0.0 0.0
06:05 -0.5 99.9 998.8 1.3 NE 3.6 NNE 0.0 0.0
06:10 -0.5 99.9 998.9 1.7 NNE 3.5 NW 0.0 0.0
06:15 -0.5 99.9 998.9 1.7 NNE 3.5 NW 0.0 0.0
06:20 -0.4 99.9 999.0 2.2 NNE 4.3 NW 0.0 0.0
06:25 -0.4 99.9 999.0 2.2 NNE 4.3 NW 0.0 0.0
06:30 -0.4 99.9 999.0 1.6 NNE 3.4 WNW 0.0 0.1
06:35 -0.4 99.9 999.0 1.6 NNE 3.4 WNW 0.0 0.1
06:40 -0.4 100.0 999.0 0.8 NE 1.5 N 0.0 0.6
06:45 -0.4 100.0 999.0 0.8 NE 1.5 N 0.0 0.6
06:50 -0.4 100.0 999.1 1.2 NE 2.7 NNW 0.0 2.0
06:55 -0.4 100.0 999.1 1.2 NE 2.7 NNW 0.0 2.0
07:00 -0.4 100.0 999.2 2.0 NE 4.6 WNW 0.0 4.4
07:05 -0.4 100.0 999.2 2.0 NE 4.6 WNW 0.0 4.4
07:10 -0.4 100.0 999.4 1.6 ENE 3.7 S 0.0 6.9
07:15 -0.4 100.0 999.4 1.6 ENE 3.7 S 0.0 6.9
07:20 -0.2 100.0 999.6 3.2 NNE 6.0 SSE 0.0 10.4
07:25 -0.2 100.0 999.6 3.2 NNE 6.0 SSE 0.0 10.4
07:30 -0.2 100.0 999.7 1.6 NE 4.2 SSE 0.0 15.5
07:35 -0.2 100.0 999.7 1.6 NE 4.2 SSE 0.0 15.5
07:40 -0.2 100.0 999.9 1.0 NE 3.2 SW 0.0 17.2
07:45 -0.2 100.0 999.9 1.0 NE 3.2 SW 0.0 17.2
07:50 -0.1 100.0 1000.1 2.0 NE 3.9 SW 0.0 19.8
07:55 -0.1 100.0 1000.1 2.0 NE 3.9 SW 0.0 19.8
08:00 0.0 100.0 1000.0 1.8 NE 4.0 ENE 0.0 30.7
08:05 0.0 100.0 1000.0 1.8 NE 4.0 ENE 0.0 30.7
08:10 0.0 100.0 1000.0 2.8 NE 7.0 SSE 0.0 39.6
08:15 0.0 100.0 1000.0 2.8 NE 7.0 SSE 0.0 39.6
08:20 0.1 100.0 999.9 3.6 NE 6.6 ENE 0.0 55.2
08:25 0.1 100.0 999.9 3.6 NE 6.6 ENE 0.0 55.2
08:30 0.1 100.0 999.9 2.6 NE 4.8 SSE 0.0 82.3
08:35 0.1 100.0 999.9 2.6 NE 4.8 SSE 0.0 82.3
08:40 0.2 100.0 1000.0 3.1 NNE 6.4 NW 0.0 90.6
08:45 0.2 100.0 1000.0 3.1 NNE 6.4 NW 0.0 90.6
08:50 0.3 100.0 1000.1 3.8 NE 9.1 NNW 0.0 82.5
08:55 0.3 100.0 1000.1 3.8 NE 9.1 NNW 0.0 82.5
09:00 0.2 100.0 1000.2 4.4 NNE 8.7 N 0.0 81.1
09:05 0.2 100.0 1000.2 4.4 NNE 8.7 N 0.0 81.1
09:10 0.3 100.0 1000.2 4.6 NNE 7.5 WNW 0.1 87.3
09:15 0.3 100.0 1000.2 4.6 NNE 7.5 WNW 0.1 87.3
09:20 0.4 100.0 1000.2 2.5 NNE 4.8 WNW 0.0 98.2
09:25 0.4 100.0 1000.2 2.5 NNE 4.8 WNW 0.0 98.2
09:30 0.6 100.0 1000.1 2.0 E 5.7 WNW 0.0 123.7
09:35 0.6 100.0 1000.1 2.0 E 5.7 WNW 0.0 123.7
09:40 0.9 100.0 1000.0 2.0 NE 4.8 E 0.0 221.3
09:45 0.9 100.0 1000.0 2.0 NE 4.8 E 0.0 221.3
09:50 1.4 100.0 1000.1 2.7 NE 7.2 N 0.0 234.8
09:55 1.4 100.0 1000.1 2.7 NE 7.2 N 0.0 234.8
10:00 1.4 100.0 1000.2 3.6 NNE 6.9 N 0.0 254.7
10:05 1.4 100.0 1000.2 3.6 NNE 6.9 N 0.0 254.7
10:10 1.7 99.9 1000.1 3.7 NNE 7.4 N 0.0 338.8
10:15 1.7 99.9 1000.1 3.7 NNE 7.4 N 0.0 338.8
10:20 2.0 99.7 1000.0 3.4 NE 6.9 NNW 0.0 372.4
10:25 2.0 99.7 1000.0 3.4 NE 6.9 NNW 0.0 372.4
10:30 2.7 99.4 999.9 2.2 NNE 4.6 N 0.0 418.5
10:35 2.7 99.4 999.9 2.2 NNE 4.6 N 0.0 418.5
10:40 3.4 98.6 999.8 1.8 NE 4.2 NNW 0.0 431.0
10:45 3.4 98.6 999.8 1.8 NE 4.2 NNW 0.0 431.0
10:50 4.0 96.4 999.6 2.5 ENE 6.4 SW 0.0 418.0
10:55 4.0 96.4 999.6 2.5 ENE 6.4 SW 0.0 418.0
11:00 5.1 89.2 999.6 3.4 NE 8.9 SSW 0.0 432.7
11:05 5.1 89.2 999.6 3.4 NE 8.9 SSW 0.0 432.7
11:10 5.5 84.5 999.5 3.6 ENE 9.3 NNE 0.0 448.8
11:15 5.5 84.5 999.5 3.6 ENE 9.3 NNE 0.0 448.8
11:20 5.3 83.7 999.3 2.4 NE 4.9 NNW 0.0 425.1
11:25 5.3 83.7 999.3 2.4 NE 4.9 NNW 0.0 425.1
11:30 5.6 82.8 999.3 4.2 NE 8.4 W 0.0 355.8
11:35 5.6 82.8 999.3 4.2 NE 8.4 W 0.0 355.8
11:40 5.7 80.1 999.2 4.1 NNE 8.9 WNW 0.0 336.6
11:45 5.7 80.1 999.2 4.1 NNE 8.9 WNW 0.0 336.6
11:50 5.3 81.4 999.1 5.0 NNE 11.2 NW 0.0 342.5
11:55 5.3 81.4 999.1 5.0 NNE 11.2 NW 0.0 342.5
12:00 5.2 81.7 999.0 4.8 NNE 9.1 WNW 0.0 344.9
12:05 5.2 81.7 999.0 4.8 NNE 9.1 WNW 0.0 344.9
12:10 5.5 79.7 998.9 4.9 NE 11.9 W 0.0 358.6
12:15 5.5 79.7 998.9 4.9 NE 11.9 W 0.0 358.6
12:20 5.6 79.7 998.9 4.0 ENE 12.2 NW 0.0 436.2
12:25 5.6 79.7 998.9 4.0 ENE 12.2 NW 0.0 436.2
12:30 6.6 74.7 998.8 4.5 NE 14.7 W 0.0 526.7
12:35 6.6 74.7 998.8 4.5 NE 14.7 W 0.0 526.7
12:40 6.7 72.5 998.7 4.7 ENE 12.6 WNW 0.0 429.2
12:45 6.7 72.5 998.7 4.7 ENE 12.6 WNW 0.0 429.2
12:50 7.3 69.1 998.6 4.9 NE 12.1 SSW 0.0 442.3
12:55 7.3 69.1 998.6 4.9 NE 12.1 SSW 0.0 442.3
13:00 7.6 68.3 998.5 5.0 NE 10.9 SSW 0.0 484.5
13:05 7.6 68.3 998.5 5.0 NE 10.9 SSW 0.0 484.5
13:10 7.8 66.3 998.5 7.0 NE 18.1 W 0.0 492.5
13:15 7.8 66.3 998.5 7.0 NE 18.1 W 0.0 492.5
13:20 7.6 64.4 998.4 6.9 NE 16.7 NW 0.0 447.9
13:25 7.6 64.4 998.4 6.9 NE 16.7 NW 0.0 447.9
13:30 8.3 63.6 998.4 4.9 ENE 13.4 SW 0.0 429.1
13:35 8.3 63.6 998.4 4.9 ENE 13.4 SW 0.0 429.1
13:40 8.8 59.1 998.4 6.4 NE 18.4 SW 0.0 394.4
13:45 8.8 59.1 998.4 6.4 NE 18.4 SW 0.0 394.4
13:50 8.6 59.3 998.3 6.3 NE 14.2 WSW 0.0 368.2
13:55 8.6 59.3 998.3 6.3 NE 14.2 WSW 0.0 368.2
14:00 8.3 59.4 998.3 6.4 NE 13.3 W 0.0 346.3
14:05 8.3 59.4 998.3 6.4 NE 13.3 W 0.0 346.3
14:10 8.4 59.4 998.3 6.3 NE 15.2 W 0.0 324.0
14:15 8.4 59.4 998.3 6.3 NE 15.2 W 0.0 324.0
14:20 8.2 59.7 998.3 5.5 NE 20.1 WNW 0.0 277.8
14:25 8.2 59.7 998.3 5.5 NE 20.1 WNW 0.0 277.8
14:30 7.3 60.4 998.3 7.1 NE 15.9 W 0.0 104.0
14:35 7.3 60.4 998.3 7.1 NE 15.9 W 0.0 104.0
14:40 6.8 62.1 998.4 6.8 NE 17.7 SW 0.0 84.3
14:45 6.8 62.1 998.4 6.8 NE 17.7 SW 0.0 84.3
14:50 6.9 61.7 998.5 7.7 NNE 24.4 SW 0.0 58.1
14:55 6.9 61.7 998.5 7.7 NNE 24.4 SW 0.0 58.1
15:00 6.7 64.0 998.7 5.9 NE 15.0 W 0.0 73.6
15:05 6.7 64.0 998.7 5.9 NE 15.0 W 0.0 73.6
15:10 6.5 65.1 998.7 4.6 NE 15.1 WSW 0.0 61.9
15:15 6.5 65.1 998.7 4.6 NE 15.1 WSW 0.0 61.9
15:20 6.7 64.3 998.7 5.6 ENE 21.0 WNW 0.0 46.9
15:25 6.7 64.3 998.7 5.6 ENE 21.0 WNW 0.0 46.9
15:30 6.6 64.8 998.8 5.1 NE 14.4 SW 0.0 55.2
15:35 6.6 64.8 998.8 5.1 NE 14.4 SW 0.0 55.2
15:40 6.3 64.6 998.7 6.2 NNE 14.0 SSW 0.0 62.9
15:45 6.3 64.6 998.7 6.2 NNE 14.0 SSW 0.0 62.9
15:50 5.9 65.9 998.8 6.2 NE 15.1 WSW 0.0 44.2
15:55 5.9 65.9 998.8 6.2 NE 15.1 WSW 0.0 44.2
16:00 5.6 66.7 998.9 3.8 NE 12.1 W 0.0 33.4
16:05 5.6 66.7 998.9 3.8 NE 12.1 W 0.0 33.4
16:10 5.3 70.2 998.9 4.6 NNE 13.6 SSW 0.0 22.1
16:15 5.3 70.2 998.9 4.6 NNE 13.6 SSW 0.0 22.1
16:20 5.1 72.2 999.1 3.1 NNE 7.2 S 0.0 11.7
16:25 5.1 72.2 999.1 3.1 NNE 7.2 S 0.0 11.7
16:30 4.8 74.0 999.2 2.2 ENE 5.0 W 0.0 4.5
16:35 4.8 74.0 999.2 2.2 ENE 5.0 W 0.0 4.5
16:40 4.4 77.5 999.3 3.9 NNE 9.9 SSW 0.0 1.0
16:45 4.4 77.5 999.3 3.9 NNE 9.9 SSW 0.0 1.0
16:50 4.1 81.4 999.3 4.8 NNE 10.6 SW 0.0 0.0
16:55 4.1 81.4 999.3 4.8 NNE 10.6 SW 0.0 0.0
17:00 3.9 80.5 999.4 4.7 NE 11.7 SSW 0.0 0.0
17:05 3.9 80.5 999.4 4.7 NE 11.7 SSW 0.0 0.0
17:10 3.7 80.2 999.6 3.1 NE 8.5 SSW 0.0 0.0
17:15 3.7 80.2 999.6 3.1 NE 8.5 SSW 0.0 0.0
17:20 3.5 80.7 999.8 2.5 ENE 6.6 W 0.0 0.0
17:25 3.5 80.7 999.8 2.5 ENE 6.6 W 0.0 0.0
17:30 3.2 82.2 999.9 2.9 NE 10.8 WSW 0.0 0.0
17:35 3.2 82.2 999.9 2.9 NE 10.8 WSW 0.0 0.0
17:40 3.1 83.7 1000.2 3.6 NNE 8.5 WNW 0.0 0.3
17:45 3.1 83.7 1000.2 3.6 NNE 8.5 WNW 0.0 0.3
17:50 3.1 83.7 1000.3 1.7 ENE 5.1 N 0.0 0.2
17:55 3.1 83.7 1000.3 1.7 ENE 5.1 N 0.0 0.2
18:00 3.2 84.4 1000.4 4.6 NNE 10.4 WNW 0.0 0.6
18:05 3.2 84.4 1000.4 4.6 NNE 10.4 WNW 0.0 0.6
18:10 3.3 84.1 1000.4 3.5 NE 12.4 W 0.0 0.1
18:15 3.3 84.1 1000.4 3.5 NE 12.4 W 0.0 0.1
18:20 3.3 83.9 1000.5 4.1 NE 12.2 WNW 0.0 0.0
18:25 3.3 83.9 1000.5 4.1 NE 12.2 WNW 0.0 0.0
18:30 3.3 84.0 1000.7 1.8 ENE 4.6 WNW 0.0 0.0
18:35 3.3 84.0 1000.7 1.8 ENE 4.6 WNW 0.0 0.0
18:40 3.1 85.4 1000.9 1.4 E 3.9 NNE 0.0 0.4
18:45 3.1 85.4 1000.9 1.4 E 3.9 NNE 0.0 0.4
18:50 3.1 87.0 1001.1 1.4 NE 3.1 SE 0.0 0.3
18:55 3.1 87.0 1001.1 1.4 NE 3.1 SE 0.0 0.3
19:00 3.1 87.7 1001.2 1.5 ENE 6.8 SSW 0.0 0.1
19:05 3.1 87.7 1001.2 1.5 ENE 6.8 SSW 0.0 0.1
19:10 3.2 87.8 1001.2 1.8 ENE 4.5 WSW 0.0 0.0
19:15 3.2 87.8 1001.2 1.8 ENE 4.5 WSW 0.0 0.0
19:20 3.3 87.6 1001.2 2.6 NE 6.8 WNW 0.0 0.2
19:25 3.3 87.6 1001.2 2.6 NE 6.8 WNW 0.0 0.2
19:30 3.4 87.3 1001.2 2.1 NE 6.3 N 0.0 0.1
19:35 3.4 87.3 1001.2 2.1 NE 6.3 N 0.0 0.1
19:40 3.5 86.9 1001.3 3.3 NNE 7.6 NW 0.0 0.1
19:45 3.5 86.9 1001.3 3.3 NNE 7.6 NW 0.0 0.1
19:50 3.6 85.9 1001.4 3.5 NE 10.0 NNW 0.0 0.1
19:55 3.6 85.9 1001.4 3.5 NE 10.0 NNW 0.0 0.1
20:00 3.8 84.7 1001.5 1.5 ENE 6.5 NW 0.0 0.0
20:05 3.8 84.7 1001.5 1.5 ENE 6.5 NW 0.0 0.0
20:10 3.8 84.9 1001.6 2.4 NE 7.1 WNW 0.0 0.0
20:15 3.8 84.9 1001.6 2.4 NE 7.1 WNW 0.0 0.0
20:20 3.8 84.7 1001.7 2.3 ENE 7.3 W 0.0 0.0
20:25 3.8 84.7 1001.7 2.3 ENE 7.3 W 0.0 0.0
20:30 3.9 83.9 1001.9 2.0 NE 7.6 W 0.0 0.0
20:35 3.9 83.9 1001.9 2.0 NE 7.6 W 0.0 0.0
20:40 3.8 83.3 1002.0 1.7 ENE 4.7 W 0.0 0.0
20:45 3.8 83.3 1002.0 1.7 ENE 4.7 W 0.0 0.0
20:50 3.8 84.0 1002.1 1.3 ENE 3.6 S 0.0 0.0
20:55 3.8 84.0 1002.1 1.3 ENE 3.6 S 0.0 0.0
21:00 3.6 83.8 1002.3 1.4 ENE 3.2 WNW 0.0 0.0
21:05 3.6 83.8 1002.3 1.4 ENE 3.2 WNW 0.0 0.0
Màxima 8.9 100.0 1002.3 7.7 NNE 24.4 SW 0.1 526.7
Mínima -1.3 59.1 998.1
Total 0.2